createdAt,value
2022-10-11T00:02:49.426Z,18.50
2022-10-11T00:07:52.127Z,18.50
2022-10-11T00:12:54.342Z,18.46
2022-10-11T00:17:57.114Z,18.47
2022-10-11T00:22:59.295Z,18.48
2022-10-11T00:28:01.701Z,18.50
2022-10-11T00:33:04.040Z,18.38
2022-10-11T00:38:06.490Z,18.52
2022-10-11T00:43:22.047Z,18.47
2022-10-11T00:48:29.591Z,18.56
2022-10-11T00:53:33.201Z,18.40
2022-10-11T00:58:36.926Z,18.55
2022-10-11T01:03:39.937Z,18.42
2022-10-11T01:08:42.619Z,18.57
2022-10-11T01:14:13.831Z,18.44
2022-10-11T01:19:37.670Z,18.42
2022-10-11T01:24:39.794Z,18.38
2022-10-11T01:30:06.097Z,18.14
2022-10-11T01:35:15.876Z,18.26
2022-10-11T01:40:42.394Z,18.18
2022-10-11T01:45:46.148Z,18.20
2022-10-11T01:50:53.607Z,18.15
2022-10-11T01:56:09.618Z,18.16
2022-10-11T02:01:27.762Z,18.17
2022-10-11T02:06:58.591Z,17.89
2022-10-11T02:12:13.081Z,18.10
2022-10-11T02:17:20.304Z,18.02
2022-10-11T02:22:44.695Z,18.08
2022-10-11T02:27:50.959Z,18.11
2022-10-11T02:32:55.049Z,18.11
2022-10-11T02:38:13.936Z,17.89
2022-10-11T02:43:33.522Z,18.04
2022-10-11T02:48:36.632Z,18.04
2022-10-11T02:53:39.009Z,17.90
2022-10-11T02:58:41.383Z,17.89
2022-10-11T03:03:43.587Z,17.91
2022-10-11T03:08:46.030Z,17.63
2022-10-11T03:13:48.451Z,18.00
2022-10-11T03:18:50.984Z,17.91
2022-10-11T03:23:53.337Z,17.69
2022-10-11T03:28:55.831Z,17.53
2022-10-11T03:33:58.099Z,17.55
2022-10-11T03:39:01.078Z,17.49
2022-10-11T03:44:03.393Z,17.34
2022-10-11T03:49:05.820Z,17.38
2022-10-11T03:54:08.193Z,17.61
2022-10-11T03:59:11.122Z,17.54
2022-10-11T04:04:13.325Z,17.49
2022-10-11T04:09:15.542Z,17.73
2022-10-11T04:14:17.969Z,17.79
2022-10-11T04:19:20.625Z,17.88
2022-10-11T04:24:22.939Z,17.80
2022-10-11T04:29:31.430Z,17.88
2022-10-11T04:34:34.939Z,17.86
2022-10-11T04:39:37.688Z,17.89
2022-10-11T04:44:40.046Z,17.69
2022-10-11T04:49:42.265Z,17.98
2022-10-11T04:54:44.526Z,17.60
2022-10-11T04:59:50.215Z,17.82
2022-10-11T05:04:52.659Z,17.66
2022-10-11T05:09:55.061Z,17.82
2022-10-11T05:14:58.493Z,17.83
2022-10-11T05:20:00.839Z,17.76
2022-10-11T05:25:03.134Z,17.73
2022-10-11T05:30:06.134Z,18.03
2022-10-11T05:35:08.812Z,18.02
2022-10-11T05:40:11.626Z,17.95
2022-10-11T05:45:13.923Z,17.93
2022-10-11T05:50:19.636Z,18.01
2022-10-11T05:55:24.702Z,18.04
2022-10-11T06:00:27.619Z,18.14
2022-10-11T06:06:25.695Z,18.20
2022-10-11T06:11:28.508Z,18.18
2022-10-11T06:16:30.673Z,18.08
2022-10-11T06:21:33.473Z,18.10
2022-10-11T06:26:35.895Z,18.34
2022-10-11T06:31:38.107Z,18.26
2022-10-11T06:36:40.394Z,18.30
2022-10-11T06:41:42.676Z,18.44
2022-10-11T06:46:44.844Z,18.47
2022-10-11T06:51:47.212Z,18.50
2022-10-11T06:56:49.713Z,18.55
2022-10-11T07:01:51.876Z,18.19
2022-10-11T07:06:54.079Z,18.41
2022-10-11T07:11:56.273Z,18.66
2022-10-11T07:16:58.486Z,18.46
2022-10-11T07:22:00.778Z,18.57
2022-10-11T07:27:03.731Z,18.69
2022-10-11T07:32:06.639Z,18.84
2022-10-11T07:37:09.050Z,18.89
2022-10-11T07:42:11.339Z,19.00
2022-10-11T07:47:13.635Z,19.25
2022-10-11T07:52:15.830Z,19.40
2022-10-11T07:57:18.024Z,19.34
2022-10-11T08:02:20.305Z,19.47
2022-10-11T08:07:22.557Z,19.64
2022-10-11T08:12:24.710Z,19.68
2022-10-11T08:17:27.074Z,19.59
2022-10-11T08:22:29.259Z,19.64
2022-10-11T08:27:31.733Z,20.03
2022-10-11T08:32:34.186Z,20.03
2022-10-11T08:37:36.583Z,20.23
2022-10-11T08:43:14.263Z,20.54
2022-10-11T08:48:27.250Z,20.47
2022-10-11T08:53:57.394Z,20.85
2022-10-11T08:59:04.905Z,20.96
2022-10-11T09:04:10.880Z,21.25
2022-10-11T09:09:53.299Z,21.35
2022-10-11T09:15:03.726Z,21.51
2022-10-11T09:20:31.842Z,21.55
2022-10-11T09:25:38.385Z,21.77
2022-10-11T09:30:48.745Z,21.84
2022-10-11T09:35:52.771Z,22.06
2022-10-11T09:41:19.298Z,22.04
2022-10-11T09:46:35.161Z,22.09
2022-10-11T09:51:38.312Z,22.14
2022-10-11T09:56:44.355Z,21.94
2022-10-11T10:01:46.813Z,21.87
2022-10-11T10:06:49.102Z,21.79
2022-10-11T10:11:51.824Z,22.05
2022-10-11T10:17:15.960Z,21.91
2022-10-11T10:22:27.977Z,22.09
2022-10-11T10:27:31.765Z,22.32
2022-10-11T10:32:54.094Z,22.19
2022-10-11T10:38:17.020Z,22.41
2022-10-11T10:43:22.230Z,22.37
2022-10-11T10:49:23.227Z,22.35
2022-10-11T10:54:23.817Z,22.49
2022-10-11T10:59:31.773Z,22.42
2022-10-11T11:04:35.826Z,22.29
2022-10-11T11:10:02.530Z,22.38
2022-10-11T11:15:19.599Z,22.44
2022-10-11T11:20:30.767Z,22.56
2022-10-11T11:25:44.873Z,22.72
2022-10-11T11:30:57.728Z,22.83
2022-10-11T11:36:06.259Z,23.02
2022-10-11T11:41:16.161Z,23.14
2022-10-11T11:46:23.821Z,23.41
2022-10-11T11:51:37.832Z,23.38
2022-10-11T11:56:55.285Z,23.42
2022-10-11T12:02:55.309Z,23.33
2022-10-11T12:08:06.435Z,23.36
2022-10-11T12:13:18.507Z,23.31
2022-10-11T12:18:21.482Z,23.30
2022-10-11T12:23:29.574Z,23.51
2022-10-11T12:28:37.511Z,23.59
2022-10-11T12:33:39.707Z,23.61
2022-10-11T12:38:42.298Z,23.47
2022-10-11T12:43:50.590Z,23.55
2022-10-11T12:49:14.581Z,23.35
2022-10-11T12:54:43.033Z,23.44
2022-10-11T12:59:47.984Z,23.26
2022-10-11T13:04:50.290Z,23.23
2022-10-11T13:09:56.301Z,22.99
2022-10-11T13:15:05.916Z,23.01
2022-10-11T13:20:18.518Z,22.95
2022-10-11T13:25:23.898Z,22.76
2022-10-11T13:30:34.844Z,22.56
2022-10-11T13:35:38.945Z,22.62
2022-10-11T13:40:41.243Z,22.48
2022-10-11T13:45:43.590Z,22.45
2022-10-11T13:50:52.918Z,22.47
2022-10-11T13:55:59.749Z,22.56
2022-10-11T14:01:05.593Z,22.61
2022-10-11T14:06:08.872Z,22.59
2022-10-11T14:11:13.991Z,22.52
2022-10-11T14:16:19.350Z,22.45
2022-10-11T14:21:25.794Z,22.43
2022-10-11T14:26:36.273Z,22.35
2022-10-11T14:31:42.028Z,22.08
2022-10-11T14:36:44.450Z,22.01
2022-10-11T14:41:47.593Z,22.04
2022-10-11T14:46:54.033Z,22.07
2022-10-11T14:51:58.698Z,22.02
2022-10-11T14:57:03.396Z,21.82
2022-10-11T15:02:08.892Z,21.98
2022-10-11T15:07:13.419Z,21.85
2022-10-11T15:12:15.632Z,21.83
2022-10-11T15:17:18.054Z,21.65
2022-10-11T15:22:20.434Z,21.54
2022-10-11T15:27:25.997Z,21.43
2022-10-11T15:32:28.123Z,21.43
2022-10-11T15:37:33.783Z,21.42
2022-10-11T15:42:38.727Z,21.36
2022-10-11T15:47:40.965Z,21.24
2022-10-11T15:52:43.195Z,21.19
2022-10-11T15:57:45.790Z,21.28
2022-10-11T16:02:48.067Z,21.18
2022-10-11T16:07:53.903Z,21.12
2022-10-11T16:12:56.506Z,21.14
2022-10-11T16:17:58.748Z,20.98
2022-10-11T16:23:01.208Z,21.00
2022-10-11T16:28:04.193Z,21.00
2022-10-11T16:33:06.518Z,20.91
2022-10-11T16:38:10.463Z,20.99
2022-10-11T16:43:12.723Z,20.87
2022-10-11T16:48:14.910Z,20.83
2022-10-11T16:53:21.856Z,20.76
2022-10-11T16:58:24.482Z,20.79
2022-10-11T17:03:26.861Z,20.76
2022-10-11T17:08:29.685Z,20.84
2022-10-11T17:13:31.957Z,20.77
2022-10-11T17:18:34.288Z,20.81
2022-10-11T17:23:37.350Z,20.89
2022-10-11T17:28:39.563Z,20.72
2022-10-11T17:33:41.900Z,20.66
2022-10-11T17:38:44.371Z,20.81
2022-10-11T17:43:47.147Z,20.65
2022-10-11T17:48:51.965Z,20.76
2022-10-11T17:53:54.769Z,20.73
2022-10-11T17:58:58.829Z,20.79
2022-10-11T18:04:03.598Z,20.75
2022-10-11T18:09:06.236Z,20.74
2022-10-11T18:14:08.701Z,20.64
2022-10-11T18:19:12.863Z,20.70
2022-10-11T18:24:17.038Z,20.76
2022-10-11T18:29:19.197Z,20.62
2022-10-11T18:34:21.356Z,20.62
2022-10-11T18:39:23.570Z,20.66
2022-10-11T18:44:25.893Z,20.58
2022-10-11T18:49:28.060Z,20.65
2022-10-11T18:54:30.262Z,20.51
2022-10-11T18:59:33.371Z,20.47
2022-10-11T19:04:35.522Z,20.59
2022-10-11T19:09:38.209Z,20.40
2022-10-11T19:14:40.574Z,20.42
2022-10-11T19:19:42.727Z,20.41
2022-10-11T19:24:46.139Z,20.35
2022-10-11T19:29:48.368Z,20.37
2022-10-11T19:34:51.122Z,20.42
2022-10-11T19:39:53.263Z,20.30
2022-10-11T19:44:55.661Z,20.32
2022-10-11T19:49:58.042Z,20.18
2022-10-11T19:55:00.199Z,20.35
2022-10-11T20:00:02.398Z,20.31
2022-10-11T20:05:04.935Z,20.27
2022-10-11T20:10:07.221Z,20.33
2022-10-11T20:15:09.831Z,20.34
2022-10-11T20:20:12.047Z,20.25
2022-10-11T20:25:14.242Z,20.31
2022-10-11T20:30:16.459Z,20.29
2022-10-11T20:35:18.611Z,20.29
2022-10-11T20:40:20.969Z,20.24
2022-10-11T20:45:23.269Z,20.24
2022-10-11T20:50:25.690Z,20.32
2022-10-11T20:55:28.252Z,20.31
2022-10-11T21:00:31.004Z,20.24
2022-10-11T21:05:33.722Z,20.29
2022-10-11T21:10:36.723Z,20.16
2022-10-11T21:15:38.963Z,20.06
2022-10-11T21:20:42.729Z,20.26
2022-10-11T21:25:45.306Z,20.21
2022-10-11T21:30:47.541Z,20.11
2022-10-11T21:35:49.743Z,20.07
2022-10-11T21:40:52.289Z,20.02
2022-10-11T21:45:54.597Z,20.05
2022-10-11T21:50:56.993Z,20.11
2022-10-11T21:56:01.900Z,20.06
2022-10-11T22:01:04.579Z,20.15
2022-10-11T22:06:06.931Z,20.13
2022-10-11T22:11:09.520Z,20.06
2022-10-11T22:16:14.030Z,20.13
2022-10-11T22:21:21.575Z,20.12
2022-10-11T22:26:31.207Z,20.11
2022-10-11T22:31:35.205Z,20.03
2022-10-11T22:36:38.360Z,19.99
2022-10-11T22:41:42.177Z,19.95
2022-10-11T22:46:44.333Z,20.04
2022-10-11T22:51:46.720Z,19.90
2022-10-11T22:56:49.010Z,20.03
2022-10-11T23:01:51.189Z,19.95
2022-10-11T23:06:53.454Z,19.96
2022-10-11T23:11:56.336Z,19.92
2022-10-11T23:16:58.492Z,19.93
2022-10-11T23:22:00.813Z,19.81
2022-10-11T23:27:03.008Z,19.87
2022-10-11T23:32:05.393Z,19.92
2022-10-11T23:37:07.954Z,19.81
2022-10-11T23:42:10.432Z,19.83
2022-10-11T23:47:12.601Z,19.74
2022-10-11T23:52:14.962Z,19.62
2022-10-11T23:57:17.137Z,19.74
